sensor_id;sensor_type;location;lat;lon;timestamp;P1;durP1;ratioP1;P2;durP2;ratioP2
15406;SDS011;7802;51.568;6.364;2022-11-28T00:01:01;8.57;;;6.63;;
15406;SDS011;7802;51.568;6.364;2022-11-28T00:14:18;8.07;;;6.43;;
15406;SDS011;7802;51.568;6.364;2022-11-28T00:17:05;7.30;;;5.80;;
15406;SDS011;7802;51.568;6.364;2022-11-28T00:57:45;8.13;;;5.87;;
15406;SDS011;7802;51.568;6.364;2022-11-28T01:00:32;6.70;;;6.00;;
15406;SDS011;7802;51.568;6.364;2022-11-28T01:03:20;7.17;;;6.37;;
15406;SDS011;7802;51.568;6.364;2022-11-28T01:06:07;8.83;;;6.50;;
15406;SDS011;7802;51.568;6.364;2022-11-28T01:13:01;7.00;;;6.23;;
15406;SDS011;7802;51.568;6.364;2022-11-28T01:19:31;8.50;;;6.13;;
15406;SDS011;7802;51.568;6.364;2022-11-28T01:22:18;8.63;;;6.50;;
15406;SDS011;7802;51.568;6.364;2022-11-28T01:25:05;7.50;;;5.93;;
15406;SDS011;7802;51.568;6.364;2022-11-28T01:27:56;7.63;;;6.00;;
15406;SDS011;7802;51.568;6.364;2022-11-28T01:30:43;6.60;;;5.90;;
15406;SDS011;7802;51.568;6.364;2022-11-28T02:27:17;8.50;;;7.20;;
15406;SDS011;7802;51.568;6.364;2022-11-28T02:30:25;9.03;;;6.90;;
15406;SDS011;7802;51.568;6.364;2022-11-28T02:33:21;9.27;;;7.40;;
15406;SDS011;7802;51.568;6.364;2022-11-28T02:36:13;10.67;;;8.17;;
15406;SDS011;7802;51.568;6.364;2022-11-28T02:39:07;9.43;;;7.40;;
15406;SDS011;7802;51.568;6.364;2022-11-28T02:42:01;12.50;;;8.37;;
15406;SDS011;7802;51.568;6.364;2022-11-28T02:44:55;10.00;;;7.40;;
15406;SDS011;7802;51.568;6.364;2022-11-28T02:47:51;9.23;;;7.63;;
15406;SDS011;7802;51.568;6.364;2022-11-28T02:50:44;10.77;;;7.97;;
15406;SDS011;7802;51.568;6.364;2022-11-28T02:53:38;8.97;;;8.03;;
15406;SDS011;7802;51.568;6.364;2022-11-28T02:56:27;8.90;;;7.63;;
15406;SDS011;7802;51.568;6.364;2022-11-28T02:59:21;10.27;;;7.77;;
15406;SDS011;7802;51.568;6.364;2022-11-28T03:02:17;11.10;;;8.47;;
15406;SDS011;7802;51.568;6.364;2022-11-28T03:05:12;10.33;;;7.90;;
15406;SDS011;7802;51.568;6.364;2022-11-28T03:08:08;9.07;;;7.40;;
15406;SDS011;7802;51.568;6.364;2022-11-28T03:11:09;9.67;;;8.57;;
15406;SDS011;7802;51.568;6.364;2022-11-28T03:14:03;10.60;;;8.03;;
15406;SDS011;7802;51.568;6.364;2022-11-28T03:16:55;10.27;;;8.10;;
15406;SDS011;7802;51.568;6.364;2022-11-28T03:19:54;9.93;;;8.47;;
15406;SDS011;7802;51.568;6.364;2022-11-28T03:22:52;9.87;;;8.93;;
15406;SDS011;7802;51.568;6.364;2022-11-28T03:25:54;11.07;;;8.60;;
15406;SDS011;7802;51.568;6.364;2022-11-28T03:28:44;11.40;;;8.83;;
15406;SDS011;7802;51.568;6.364;2022-11-28T03:31:35;12.00;;;8.70;;
15406;SDS011;7802;51.568;6.364;2022-11-28T03:34:27;10.50;;;8.70;;
15406;SDS011;7802;51.568;6.364;2022-11-28T03:37:19;15.67;;;9.47;;
15406;SDS011;7802;51.568;6.364;2022-11-28T03:40:11;12.43;;;9.40;;
15406;SDS011;7802;51.568;6.364;2022-11-28T03:43:19;12.27;;;8.87;;
15406;SDS011;7802;51.568;6.364;2022-11-28T03:46:10;10.10;;;8.93;;
15406;SDS011;7802;51.568;6.364;2022-11-28T03:49:00;11.63;;;8.93;;
15406;SDS011;7802;51.568;6.364;2022-11-28T03:51:50;11.07;;;8.63;;
15406;SDS011;7802;51.568;6.364;2022-11-28T03:54:40;9.73;;;8.37;;
15406;SDS011;7802;51.568;6.364;2022-11-28T03:57:33;12.50;;;8.77;;
15406;SDS011;7802;51.568;6.364;2022-11-28T04:00:21;11.60;;;8.50;;
15406;SDS011;7802;51.568;6.364;2022-11-28T04:03:10;13.17;;;8.83;;
15406;SDS011;7802;51.568;6.364;2022-11-28T04:06:06;9.10;;;8.13;;
15406;SDS011;7802;51.568;6.364;2022-11-28T04:09:01;10.67;;;9.57;;
15406;SDS011;7802;51.568;6.364;2022-11-28T04:12:02;8.83;;;7.93;;
15406;SDS011;7802;51.568;6.364;2022-11-28T04:14:54;11.27;;;8.87;;
15406;SDS011;7802;51.568;6.364;2022-11-28T04:17:49;10.97;;;8.87;;
15406;SDS011;7802;51.568;6.364;2022-11-28T04:21:00;10.13;;;9.10;;
15406;SDS011;7802;51.568;6.364;2022-11-28T04:23:52;10.70;;;9.03;;
15406;SDS011;7802;51.568;6.364;2022-11-28T04:26:42;8.67;;;7.80;;
15406;SDS011;7802;51.568;6.364;2022-11-28T04:29:34;9.93;;;8.43;;
15406;SDS011;7802;51.568;6.364;2022-11-28T04:32:24;10.50;;;9.30;;
15406;SDS011;7802;51.568;6.364;2022-11-28T04:35:17;10.67;;;8.87;;
15406;SDS011;7802;51.568;6.364;2022-11-28T04:38:09;13.77;;;8.27;;
15406;SDS011;7802;51.568;6.364;2022-11-28T04:40:59;10.10;;;9.03;;
15406;SDS011;7802;51.568;6.364;2022-11-28T04:43:50;10.90;;;9.50;;
15406;SDS011;7802;51.568;6.364;2022-11-28T04:46:43;12.23;;;9.07;;
15406;SDS011;7802;51.568;6.364;2022-11-28T04:49:33;10.03;;;8.53;;
15406;SDS011;7802;51.568;6.364;2022-11-28T04:52:22;11.57;;;8.60;;
15406;SDS011;7802;51.568;6.364;2022-11-28T04:55:16;11.40;;;9.03;;
15406;SDS011;7802;51.568;6.364;2022-11-28T04:58:12;10.83;;;8.87;;
15406;SDS011;7802;51.568;6.364;2022-11-28T05:01:04;12.47;;;9.03;;
15406;SDS011;7802;51.568;6.364;2022-11-28T05:03:53;11.43;;;9.60;;
15406;SDS011;7802;51.568;6.364;2022-11-28T05:06:40;11.47;;;9.30;;
15406;SDS011;7802;51.568;6.364;2022-11-28T05:09:28;10.93;;;9.77;;
15406;SDS011;7802;51.568;6.364;2022-11-28T05:12:15;10.53;;;9.53;;
15406;SDS011;7802;51.568;6.364;2022-11-28T05:15:02;10.07;;;9.07;;
15406;SDS011;7802;51.568;6.364;2022-11-28T05:17:49;12.13;;;10.40;;
15406;SDS011;7802;51.568;6.364;2022-11-28T05:20:36;11.27;;;8.83;;
15406;SDS011;7802;51.568;6.364;2022-11-28T05:23:24;11.60;;;9.27;;
15406;SDS011;7802;51.568;6.364;2022-11-28T05:26:12;10.60;;;9.50;;
15406;SDS011;7802;51.568;6.364;2022-11-28T05:29:01;11.63;;;9.87;;
15406;SDS011;7802;51.568;6.364;2022-11-28T05:31:48;11.97;;;10.27;;
15406;SDS011;7802;51.568;6.364;2022-11-28T05:34:35;11.57;;;9.90;;
15406;SDS011;7802;51.568;6.364;2022-11-28T05:37:22;11.63;;;9.33;;
15406;SDS011;7802;51.568;6.364;2022-11-28T05:40:10;10.37;;;8.97;;
15406;SDS011;7802;51.568;6.364;2022-11-28T05:42:58;10.20;;;9.20;;
15406;SDS011;7802;51.568;6.364;2022-11-28T05:45:46;12.03;;;9.57;;
15406;SDS011;7802;51.568;6.364;2022-11-28T05:48:34;11.20;;;8.87;;
15406;SDS011;7802;51.568;6.364;2022-11-28T05:51:21;11.40;;;9.20;;
15406;SDS011;7802;51.568;6.364;2022-11-28T05:54:08;11.90;;;8.77;;
15406;SDS011;7802;51.568;6.364;2022-11-28T05:56:55;9.60;;;8.60;;
15406;SDS011;7802;51.568;6.364;2022-11-28T05:59:42;11.27;;;9.10;;
15406;SDS011;7802;51.568;6.364;2022-11-28T06:02:29;10.83;;;9.57;;
15406;SDS011;7802;51.568;6.364;2022-11-28T06:05:16;10.30;;;8.43;;
15406;SDS011;7802;51.568;6.364;2022-11-28T06:08:23;14.10;;;9.17;;
15406;SDS011;7802;51.568;6.364;2022-11-28T06:11:10;13.60;;;9.40;;
15406;SDS011;7802;51.568;6.364;2022-11-28T06:13:59;15.93;;;9.80;;
15406;SDS011;7802;51.568;6.364;2022-11-28T06:16:48;10.50;;;9.43;;
15406;SDS011;7802;51.568;6.364;2022-11-28T06:19:35;12.80;;;8.87;;
15406;SDS011;7802;51.568;6.364;2022-11-28T06:22:22;20.90;;;10.43;;
15406;SDS011;7802;51.568;6.364;2022-11-28T06:25:09;14.13;;;9.07;;
15406;SDS011;7802;51.568;6.364;2022-11-28T06:27:56;10.13;;;9.13;;
15406;SDS011;7802;51.568;6.364;2022-11-28T06:30:43;10.53;;;9.40;;
15406;SDS011;7802;51.568;6.364;2022-11-28T06:33:30;11.10;;;8.53;;
15406;SDS011;7802;51.568;6.364;2022-11-28T06:36:17;10.30;;;8.67;;
15406;SDS011;7802;51.568;6.364;2022-11-28T06:39:05;9.67;;;8.53;;
15406;SDS011;7802;51.568;6.364;2022-11-28T06:41:52;11.60;;;8.57;;
15406;SDS011;7802;51.568;6.364;2022-11-28T06:44:39;10.07;;;8.53;;
15406;SDS011;7802;51.568;6.364;2022-11-28T06:47:26;10.70;;;8.47;;
15406;SDS011;7802;51.568;6.364;2022-11-28T06:50:14;11.03;;;8.53;;
15406;SDS011;7802;51.568;6.364;2022-11-28T06:53:01;9.27;;;8.43;;
15406;SDS011;7802;51.568;6.364;2022-11-28T06:55:48;9.73;;;8.73;;
15406;SDS011;7802;51.568;6.364;2022-11-28T06:58:35;9.47;;;8.43;;
15406;SDS011;7802;51.568;6.364;2022-11-28T07:01:22;9.33;;;8.10;;
15406;SDS011;7802;51.568;6.364;2022-11-28T07:04:11;10.20;;;8.57;;
15406;SDS011;7802;51.568;6.364;2022-11-28T07:06:58;10.93;;;8.60;;
15406;SDS011;7802;51.568;6.364;2022-11-28T07:09:45;8.87;;;7.97;;
15406;SDS011;7802;51.568;6.364;2022-11-28T07:12:32;10.33;;;8.33;;
15406;SDS011;7802;51.568;6.364;2022-11-28T07:15:19;9.83;;;8.70;;
15406;SDS011;7802;51.568;6.364;2022-11-28T07:18:06;10.73;;;8.40;;
15406;SDS011;7802;51.568;6.364;2022-11-28T07:20:53;11.47;;;9.00;;
15406;SDS011;7802;51.568;6.364;2022-11-28T07:23:40;10.07;;;8.00;;
15406;SDS011;7802;51.568;6.364;2022-11-28T07:26:27;10.63;;;8.53;;
15406;SDS011;7802;51.568;6.364;2022-11-28T07:29:15;10.77;;;8.47;;
15406;SDS011;7802;51.568;6.364;2022-11-28T07:32:03;10.60;;;8.20;;
15406;SDS011;7802;51.568;6.364;2022-11-28T07:34:51;11.33;;;8.60;;
15406;SDS011;7802;51.568;6.364;2022-11-28T07:37:38;12.37;;;9.07;;
15406;SDS011;7802;51.568;6.364;2022-11-28T07:40:52;9.23;;;8.07;;
15406;SDS011;7802;51.568;6.364;2022-11-28T07:43:39;10.47;;;8.23;;
15406;SDS011;7802;51.568;6.364;2022-11-28T07:46:28;11.17;;;9.00;;
15406;SDS011;7802;51.568;6.364;2022-11-28T07:49:18;11.90;;;8.87;;
15406;SDS011;7802;51.568;6.364;2022-11-28T07:52:05;10.80;;;8.20;;
